Nearby METAR Reports

 

KTAN - Taunton, Massachusetts, USA
Distance from station: W 5mi, 8km
Updated: Sun, 20-Sep-2020 2:52pm EDT
Few Clouds
Few Clouds
 Wind from varies
Wind: varies 7 mph , 11 km/h
Temperature: 61°F , 16°C
Dew Point: 30°F , -1°C
Humidity: 31%
Barometer: 30.51 inHg , 1033.2 hPa
Clouds: Few Clouds
Visibility: 10 miles , 16 km
Cloud details: Few Clouds 6000 ft
2020/09/20 18:52 KTAN 201852Z AUTO VRB06KT 10SM FEW060 16/M01 A3051 RMK AO2 SLP332 T01611006
KPYM - Plymouth, Massachusetts, USA
Distance from station: ENE 10mi, 16km
Updated: Sun, 20-Sep-2020 2:52pm EDT
Few Clouds
Few Clouds
 Wind from NNE
Wind: NNE 16 mph , 26 km/h, Gust: 28 mph , 44 km/h
Temperature: 59°F , 15°C
Dew Point: 37°F , 3°C
Humidity: 45%
Barometer: 30.51 inHg , 1033.2 hPa
Clouds: Few Clouds
Visibility: 10 miles , 16 km
Cloud details: Few Clouds 4400 ft
2020/09/20 18:52 KPYM 201852Z AUTO 03014G24KT 10SM FEW044 15/03 A3051 RMK AO2 SLP333 T01500033
 
KEWB - New Bedford, Massachusetts, USA
Distance from station: S 14mi, 23km
Updated: Sun, 20-Sep-2020 2:53pm EDT
Mostly cloudy
Mostly cloudy
 Wind from NNE
Wind: NNE 14 mph , 22 km/h, Gust: 23 mph , 37 km/h
Temperature: 59°F , 15°C
Dew Point: 36°F , 2°C
Humidity: 42%
Barometer: 30.50 inHg , 1032.8 hPa
Clouds: Mostly cloudy
Visibility: 10 miles , 16 km
Cloud details: Mostly cloudy 5500 ft
2020/09/20 18:53 KEWB 201853Z 03012G20KT 10SM BKN055 15/02 A3050 RMK AO2 PK WND 03026/1833 RAB1756E1758 SLP327 P0000 T01500017
KGHG - Marshfield, Massachusetts, USA
Distance from station: NE 20mi, 31km
Updated: Sun, 20-Sep-2020 3:15pm EDT
Clear
Clear
 Wind from NE
Wind: NE 12 mph , 19 km/h, Gust: 20 mph , 31 km/h
Temperature: 59°F , 15°C
Dew Point: 36°F , 2°C
Humidity: 42%
Barometer: 30.52 inHg , 1033.5 hPa
Clouds: Clear
Visibility: 10 miles , 16 km
2020/09/20 19:15 KGHG 201915Z AUTO 04010G17KT 360V060 10SM CLR 15/02 A3052 RMK AO2
 
KOWD - Norwood, Massachusetts, USA
Distance from station: NNW 24mi, 39km
Updated: Sun, 20-Sep-2020 2:53pm EDT
Few Clouds
Few Clouds
 Wind from ENE
Wind: ENE 13 mph , 20 km/h, Gust: 23 mph , 37 km/h
Temperature: 61°F , 16°C
Dew Point: 34°F , 1°C
Humidity: 36%
Barometer: 30.52 inHg , 1033.5 hPa
Clouds: Few Clouds
Visibility: 10 miles , 16 km
Cloud details: Few Clouds 6500 ft
2020/09/20 18:53 KOWD 201853Z 07011G20KT 10SM FEW065 16/01 A3052 RMK AO2 SLP335 T01560006
KMQE - East Milton, Massachusetts, USA
Distance from station: NNW 25mi, 40km
Updated: Sun, 20-Sep-2020 2:51pm EDT

 Wind from ENE
Wind: ENE 15 mph , 24 km/h, Gust: 25 mph , 41 km/h
Temperature: 55°F , 13°C
Dew Point: 30°F , -1°C
Humidity: 38%
Barometer: 30.51 inHg , 1033.2 hPa
2020/09/20 18:51 KMQE 201851Z AUTO 06013G22KT 13/M01 A3051 RMK AO1 SLP344 T01281006
 
KFMH - Falmouth/Otis Ab, Massachusetts, USA
Distance from station: SE 27mi, 44km
Updated: Sun, 20-Sep-2020 2:45pm EDT
Few Clouds
Few Clouds
 Wind from NNE
Wind: NNE 17 mph , 28 km/h, Gust: 29 mph , 46 km/h
Temperature: 59°F , 15°C
Dew Point: 34°F , 1°C
Humidity: 39%
Barometer: 30.49 inHg , 1032.5 hPa
Clouds: Few Clouds
Visibility: 10 miles , 16 km
Cloud details: Few Clouds 5000 ft
2020/09/20 18:45 KFMH 201845Z 02015G25KT 10SM FEW050 15/01 A3049
KPVD - Providence/Green, Rhode Island, USA
Distance from station: WSW 29mi, 47km
Updated: Sun, 20-Sep-2020 2:51pm EDT
Few Clouds
Few Clouds
 Wind from NE
Wind: NE 16 mph , 26 km/h, Gust: 26 mph , 43 km/h
Temperature: 61°F , 16°C
Dew Point: 30°F , -1°C
Humidity: 31%
Barometer: 30.51 inHg , 1033.2 hPa
Clouds: Few Clouds
Visibility: 10 miles , 16 km
Cloud details: Few Clouds 6500 ft
Few Clouds 25000 ft
2020/09/20 18:51 KPVD 201851Z 05014G23KT 10SM FEW065 FEW250 16/M01 A3051 RMK AO2 SLP332 T01611011
 
KSFZ - Pawtucket, Rhode Island, USA
Distance from station: W 30mi, 48km
Updated: Sun, 20-Sep-2020 2:56pm EDT
Partly cloudy
Partly cloudy
 Wind from ENE
Wind: ENE 10 mph , 17 km/h, Gust: 21 mph , 33 km/h
Temperature: 57°F , 14°C
Dew Point: 30°F , -1°C
Humidity: 36%
Barometer: 30.51 inHg , 1033.2 hPa
Clouds: Partly cloudy
Visibility: 10 miles , 16 km
Cloud details: Partly cloudy 6500 ft
2020/09/20 18:56 KSFZ 201856Z AUTO 06009G18KT 10SM SCT065 14/M01 A3051 RMK AO2 SLP279 T01441011
KUUU - Newport, Rhode Island, USA
Distance from station: SW 31mi, 50km
Updated: Sun, 20-Sep-2020 2:53pm EDT
Partly cloudy
Partly cloudy
 Wind from N
Wind: N 16 mph , 26 km/h, Gust: 24 mph , 39 km/h
Temperature: 63°F , 17°C
Dew Point: 32°F , 0°C
Humidity: 32%
Barometer: 30.49 inHg , 1032.5 hPa
Clouds: Partly cloudy
Visibility: 10 miles , 16 km
Cloud details: Partly cloudy 6500 ft
2020/09/20 18:53 KUUU 201853Z AUTO 01014G21KT 10SM SCT065 17/00 A3049 RMK AO2 SLP324 T01720000
 
KOQU - N. Kingston/Quon, Rhode Island, USA
Distance from station: SW 32mi, 52km
Updated: Sun, 20-Sep-2020 2:50pm EDT
Partly cloudy
Partly cloudy
 Wind from ENE
Wind: ENE 18 mph , 30 km/h
Temperature: 63°F , 17°C
Dew Point: 32°F , 0°C
Humidity: 32%
Barometer: 30.50 inHg , 1032.8 hPa
Clouds: Partly cloudy
Visibility: 10 miles , 16 km
Cloud details: Partly cloudy 6000 ft
2020/09/20 18:50 KOQU 201850Z 06016KT 10SM SCT060 17/00 A3050
KBOS - Boston, Massachusetts, USA
Distance from station: N 33mi, 54km
Updated: Sun, 20-Sep-2020 2:54pm EDT
Partly cloudy
Partly cloudy
 Wind from E
Wind: E 15 mph , 24 km/h
Temperature: 57°F , 14°C
Dew Point: 34°F , 1°C
Humidity: 41%
Barometer: 30.53 inHg , 1033.9 hPa
Clouds: Partly cloudy
Visibility: 10 miles , 16 km
Cloud details: Partly cloudy 6000 ft
Partly cloudy 15000 ft
2020/09/20 18:54 KBOS 201854Z 08013KT 10SM SCT060 SCT150 14/01 A3053 RMK AO2 SLP338 T01440011
 
KHYA - Hyannis, Massachusetts, USA
Distance from station: ESE 37mi, 59km
Updated: Sun, 20-Sep-2020 2:56pm EDT
Few Clouds
Few Clouds
 Wind from NNE
Wind: NNE 17 mph , 28 km/h, Gust: 28 mph , 44 km/h
Temperature: 61°F , 16°C
Dew Point: 34°F , 1°C
Humidity: 36%
Barometer: 30.47 inHg , 1031.8 hPa
Clouds: Few Clouds
Visibility: 10 miles , 16 km
Cloud details: Few Clouds 4500 ft
2020/09/20 18:56 KHYA 201856Z 03015G24KT 10SM FEW045 16/01 A3047 RMK AO2 SLP318 T01610006
KMVY - Marthas Vineyard, Massachusetts, USA
Distance from station: SSE 37mi, 60km
Updated: Sun, 20-Sep-2020 2:53pm EDT
Partly cloudy
Partly cloudy
 Wind from NE
Wind: NE 22 mph , 35 km/h, Gust: 28 mph , 44 km/h
Temperature: 63°F , 17°C
Dew Point: 36°F , 2°C
Humidity: 37%
Barometer: 30.48 inHg , 1032.2 hPa
Clouds: Partly cloudy
Visibility: 10 miles , 16 km
Cloud details: Partly cloudy 5000 ft
2020/09/20 18:53 KMVY 201853Z 05019G24KT 10SM SCT050 17/02 A3048 RMK AO2 PK WND 01026/1809 SLP320 T01670017 $
 
KPVC - Provincetown, Massachusetts, USA
Distance from station: ENE 38mi, 61km
Updated: Sun, 20-Sep-2020 2:56pm EDT
Partly cloudy
Partly cloudy
 Wind from NNE
Wind: NNE 15 mph , 24 km/h
Temperature: 57°F , 14°C
Dew Point: 37°F , 3°C
Humidity: 48%
Barometer: 30.52 inHg , 1033.5 hPa
Clouds: Partly cloudy
Visibility: 10 miles , 16 km
Cloud details: Partly cloudy 4600 ft
Partly cloudy 6000 ft
2020/09/20 18:56 KPVC 201856Z AUTO 03013KT 10SM SCT046 SCT060 14/03 A3052 RMK AO2 RAB23E34 SLP334 P0000 T01390033
KBED - Bedford, Massachusetts, USA
Distance from station: NNW 44mi, 72km
Updated: Sun, 20-Sep-2020 2:51pm EDT
Mostly cloudy
Mostly cloudy
 Wind from ENE
Wind: ENE 12 mph , 19 km/h
Temperature: 61°F , 16°C
Dew Point: 30°F , -1°C
Humidity: 31%
Barometer: 30.51 inHg , 1033.2 hPa
Clouds: Mostly cloudy
Visibility: 10 miles , 16 km
Cloud details: Mostly cloudy 7000 ft
2020/09/20 18:51 KBED 201851Z 07010KT 10SM BKN070 16/M01 A3051 RMK AO2 SLP346 T01561006
 
KBVY - Beverly, Massachusetts, USA
Distance from station: 0 48mi, 77km
Updated: Sun, 20-Sep-2020 2:53pm EDT
Clear
Clear
 Wind from NE
Wind: NE 10 mph , 17 km/h
Temperature: 59°F , 15°C
Dew Point: 32°F , 0°C
Humidity: 36%
Barometer: 30.53 inHg , 1033.9 hPa
Clouds: Clear
Visibility: 10 miles , 16 km
2020/09/20 18:53 KBVY 201853Z 05009KT 10SM CLR 15/00 A3053 RMK AO2 SLP335 T01500000
KCQX - Chatham, Massachusetts, USA
Distance from station: ESE 49mi, 80km
Updated: Sun, 20-Sep-2020 2:52pm EDT
Few Clouds
Few Clouds
 Wind from NE
Wind: NE 15 mph , 24 km/h, Gust: 22 mph , 35 km/h
Temperature: 57°F , 14°C
Dew Point: 36°F , 2°C
Humidity: 44%
Barometer: 30.49 inHg , 1032.5 hPa
Clouds: Few Clouds
Visibility: 10 miles , 16 km
Cloud details: Few Clouds 5000 ft
2020/09/20 18:52 KCQX 201852Z AUTO 04013G19KT 10SM FEW050 14/02 A3049 RMK AO2 SLP327 T01440017